createdAt,value
2022-09-04T00:00:32.526Z,57.94
2022-09-04T00:01:32.513Z,57.54
2022-09-04T00:02:32.508Z,57.03
2022-09-04T00:03:32.532Z,57.43
2022-09-04T00:04:32.635Z,57.54
2022-09-04T00:05:32.481Z,57.54
2022-09-04T00:06:32.461Z,57.54
2022-09-04T00:07:32.569Z,57.64
2022-09-04T00:08:32.434Z,57.54
2022-09-04T00:09:32.461Z,57.84
2022-09-04T00:10:32.472Z,58.14
2022-09-04T00:11:32.399Z,57.67
2022-09-04T00:12:32.390Z,59.18
2022-09-04T00:13:32.381Z,60.69
2022-09-04T00:14:32.370Z,60.29
2022-09-04T00:15:32.370Z,60.60
2022-09-04T00:16:32.400Z,60.62
2022-09-04T00:17:32.425Z,60.62
2022-09-04T00:18:32.329Z,61.94
2022-09-04T00:19:32.312Z,62.14
2022-09-04T00:20:32.302Z,61.56
2022-09-04T00:21:32.290Z,60.32
2022-09-04T00:22:32.428Z,60.05
2022-09-04T00:23:32.264Z,59.61
2022-09-04T00:24:32.255Z,59.00
2022-09-04T00:25:32.241Z,58.80
2022-09-04T00:26:32.234Z,58.70
2022-09-04T00:27:32.818Z,58.40
2022-09-04T00:28:32.251Z,59.31
2022-09-04T00:29:32.196Z,58.27
2022-09-04T00:30:32.239Z,58.78
2022-09-04T00:31:32.175Z,58.17
2022-09-04T00:32:32.248Z,59.08
2022-09-04T00:33:32.163Z,58.60
2022-09-04T00:34:32.147Z,57.79
2022-09-04T00:35:32.127Z,58.37
2022-09-04T00:36:32.130Z,58.09
2022-09-04T00:37:32.148Z,58.67
2022-09-04T00:38:32.101Z,58.70
2022-09-04T00:39:32.171Z,58.47
2022-09-04T00:40:32.075Z,59.11
2022-09-04T00:41:32.061Z,58.98
2022-09-04T00:42:32.198Z,58.07
2022-09-04T00:43:32.062Z,58.40
2022-09-04T00:44:32.028Z,59.11
2022-09-04T00:45:32.048Z,58.50
2022-09-04T00:46:32.008Z,57.97
2022-09-04T00:47:32.116Z,59.11
2022-09-04T00:48:32.038Z,59.28
2022-09-04T00:49:31.972Z,59.81
2022-09-04T00:50:31.959Z,60.62
2022-09-04T00:51:31.950Z,61.43
2022-09-04T00:52:36.746Z,61.66
2022-09-04T00:53:31.922Z,62.16
2022-09-04T00:54:31.919Z,63.21
2022-09-04T00:55:31.898Z,63.41
2022-09-04T00:56:31.898Z,64.52
2022-09-04T00:57:31.884Z,63.81
2022-09-04T00:58:31.869Z,63.61
2022-09-04T00:59:31.892Z,64.62
2022-09-04T01:00:31.849Z,63.84
2022-09-04T01:01:31.906Z,65.09
2022-09-04T01:02:31.930Z,65.19
2022-09-04T01:03:31.812Z,64.58
2022-09-04T01:04:31.801Z,65.59
2022-09-04T01:05:31.813Z,64.79
2022-09-04T01:06:31.797Z,65.80
2022-09-04T01:07:31.767Z,66.00
2022-09-04T01:08:31.754Z,65.29
2022-09-04T01:09:31.752Z,65.83
2022-09-04T01:10:31.763Z,66.00
2022-09-04T01:11:31.748Z,65.70
2022-09-04T01:12:31.792Z,65.63
2022-09-04T01:13:31.695Z,65.80
2022-09-04T01:14:31.683Z,65.50
2022-09-04T01:15:31.670Z,67.14
2022-09-04T01:16:31.762Z,66.74
2022-09-04T01:17:31.686Z,67.55
2022-09-04T01:18:31.640Z,67.65
2022-09-04T01:19:31.630Z,68.06
2022-09-04T01:20:31.642Z,68.97
2022-09-04T01:21:31.628Z,68.16
2022-09-04T01:22:31.633Z,68.06
2022-09-04T01:23:31.585Z,67.76
2022-09-04T01:24:31.578Z,67.05
2022-09-04T01:25:31.558Z,65.93
2022-09-04T01:26:31.555Z,67.25
2022-09-04T01:27:31.607Z,67.55
2022-09-04T01:28:31.592Z,66.64
2022-09-04T01:29:31.512Z,67.38
2022-09-04T01:30:31.503Z,65.96
2022-09-04T01:31:31.539Z,66.97
2022-09-04T01:32:31.511Z,67.48
2022-09-04T01:33:31.473Z,67.18
2022-09-04T01:34:31.461Z,67.08
2022-09-04T01:35:31.441Z,67.48
2022-09-04T01:36:31.431Z,67.79
2022-09-04T01:37:31.464Z,67.14
2022-09-04T01:38:31.574Z,65.86
2022-09-04T01:39:31.452Z,65.83
2022-09-04T01:40:35.627Z,65.53
2022-09-04T01:41:34.016Z,65.02
2022-09-04T01:42:31.371Z,64.92
2022-09-04T01:43:31.349Z,65.22
2022-09-04T01:44:31.364Z,64.38
2022-09-04T01:45:31.845Z,63.57
2022-09-04T01:46:31.316Z,63.98
2022-09-04T01:47:31.309Z,63.87
2022-09-04T01:48:31.296Z,63.87
2022-09-04T01:49:31.310Z,63.78
2022-09-04T01:50:31.272Z,63.98
2022-09-04T01:51:31.261Z,63.54
2022-09-04T01:52:31.248Z,63.84
2022-09-04T01:53:32.770Z,64.28
2022-09-04T01:54:31.251Z,64.28
2022-09-04T01:55:31.222Z,63.98
2022-09-04T01:56:31.253Z,63.37
2022-09-04T01:57:31.184Z,64.55
2022-09-04T01:58:31.178Z,64.04
2022-09-04T01:59:31.165Z,65.80
2022-09-04T02:00:31.151Z,65.09
2022-09-04T02:01:31.178Z,65.29
2022-09-04T02:02:31.242Z,65.39
2022-09-04T02:03:31.117Z,64.58
2022-09-04T02:04:31.111Z,64.38
2022-09-04T02:05:31.090Z,63.78
2022-09-04T02:06:31.085Z,63.87
2022-09-04T02:07:31.096Z,64.79
2022-09-04T02:08:31.061Z,63.67
2022-09-04T02:09:31.059Z,63.87
2022-09-04T02:10:31.032Z,63.98
2022-09-04T02:11:31.026Z,65.59
2022-09-04T02:12:31.029Z,66.24
2022-09-04T02:13:30.999Z,66.64
2022-09-04T02:14:30.987Z,66.44
2022-09-04T02:15:30.971Z,67.08
2022-09-04T02:16:31.290Z,67.89
2022-09-04T02:17:30.949Z,67.89
2022-09-04T02:18:30.938Z,67.79
2022-09-04T02:19:30.923Z,68.23
2022-09-04T02:20:30.920Z,68.23
2022-09-04T02:21:30.900Z,68.23
2022-09-04T02:22:30.895Z,68.73
2022-09-04T02:23:30.875Z,68.12
2022-09-04T02:24:30.887Z,69.51
2022-09-04T02:25:30.865Z,70.15
2022-09-04T02:26:30.846Z,70.05
2022-09-04T02:27:30.863Z,69.74
2022-09-04T02:28:30.824Z,70.15
2022-09-04T02:29:33.118Z,70.15
2022-09-04T02:30:30.796Z,68.70
2022-09-04T02:31:31.001Z,69.31
2022-09-04T02:32:30.777Z,69.81
2022-09-04T02:33:30.758Z,68.23
2022-09-04T02:34:30.751Z,69.31
2022-09-04T02:35:30.742Z,69.41
2022-09-04T02:36:30.726Z,69.41
2022-09-04T02:37:30.771Z,69.10
2022-09-04T02:38:30.705Z,67.99
2022-09-04T02:39:30.743Z,67.72
2022-09-04T02:40:30.676Z,69.64
2022-09-04T02:41:30.666Z,69.20
2022-09-04T02:42:30.658Z,69.31
2022-09-04T02:43:30.683Z,70.01
2022-09-04T02:44:30.647Z,67.82
2022-09-04T02:45:30.618Z,68.40
2022-09-04T02:46:30.686Z,69.00
2022-09-04T02:47:30.594Z,69.10
2022-09-04T02:48:30.608Z,68.23
2022-09-04T02:49:30.599Z,69.24
2022-09-04T02:50:30.561Z,70.05
2022-09-04T02:51:30.556Z,70.45
2022-09-04T02:52:30.534Z,69.84
2022-09-04T02:53:30.548Z,69.64
2022-09-04T02:54:30.528Z,69.95
2022-09-04T02:55:30.565Z,69.54
2022-09-04T02:56:31.094Z,67.72
2022-09-04T02:57:30.478Z,67.92
2022-09-04T02:58:30.464Z,67.82
2022-09-04T02:59:30.448Z,66.88
2022-09-04T03:00:30.520Z,67.08
2022-09-04T03:01:30.442Z,66.67
2022-09-04T03:02:30.492Z,66.97
2022-09-04T03:03:30.401Z,67.28
2022-09-04T03:04:30.392Z,67.89
2022-09-04T03:05:30.405Z,67.79
2022-09-04T03:06:30.368Z,67.08
2022-09-04T03:07:30.355Z,67.79
2022-09-04T03:08:30.351Z,67.79
2022-09-04T03:09:30.333Z,68.19
2022-09-04T03:10:30.374Z,67.48
2022-09-04T03:11:30.312Z,69.03
2022-09-04T03:12:30.300Z,69.44
2022-09-04T03:13:30.284Z,69.51
2022-09-04T03:14:30.275Z,69.81
2022-09-04T03:15:30.256Z,69.51
2022-09-04T03:16:30.334Z,69.20
2022-09-04T03:17:30.235Z,69.54
2022-09-04T03:18:30.233Z,68.49
2022-09-04T03:19:30.224Z,69.24
2022-09-04T03:20:30.210Z,68.23
2022-09-04T03:21:30.184Z,69.13
2022-09-04T03:22:30.208Z,69.64
2022-09-04T03:23:30.162Z,71.09
2022-09-04T03:24:30.153Z,69.68
2022-09-04T03:25:30.148Z,70.28
2022-09-04T03:26:30.125Z,71.00
2022-09-04T03:27:30.139Z,69.68
2022-09-04T03:28:30.111Z,71.30
2022-09-04T03:29:30.107Z,71.60
2022-09-04T03:30:30.087Z,70.08
2022-09-04T03:31:30.182Z,69.78
2022-09-04T03:32:30.061Z,71.60
2022-09-04T03:33:30.229Z,71.80
2022-09-04T03:34:30.030Z,71.44
2022-09-04T03:35:30.015Z,71.40
2022-09-04T03:36:30.025Z,71.00
2022-09-04T03:37:30.000Z,70.89
2022-09-04T03:38:29.984Z,71.00
2022-09-04T03:39:30.028Z,69.78
2022-09-04T03:40:29.957Z,69.27
2022-09-04T03:41:29.947Z,68.93
2022-09-04T03:42:29.933Z,69.84
2022-09-04T03:43:29.921Z,70.56
2022-09-04T03:44:29.943Z,69.74
2022-09-04T03:45:29.897Z,71.09
2022-09-04T03:46:29.991Z,70.79
2022-09-04T03:47:29.871Z,69.37
2022-09-04T03:48:29.876Z,71.84
2022-09-04T03:49:29.859Z,71.94
2022-09-04T03:50:29.839Z,71.94
2022-09-04T03:51:29.824Z,72.85
2022-09-04T03:52:29.826Z,73.16
2022-09-04T03:53:29.799Z,71.44
2022-09-04T03:54:29.791Z,72.04
2022-09-04T03:55:29.775Z,71.64
2022-09-04T03:56:29.763Z,71.13
2022-09-04T03:57:29.787Z,71.64
2022-09-04T03:58:29.739Z,70.92
2022-09-04T03:59:29.751Z,71.84
2022-09-04T04:00:29.764Z,71.73
2022-09-04T04:01:29.759Z,71.33
2022-09-04T04:02:29.740Z,70.52
2022-09-04T04:03:29.692Z,71.23
2022-09-04T04:04:29.668Z,71.23
2022-09-04T04:05:29.688Z,71.64
2022-09-04T04:06:29.652Z,71.23
2022-09-04T04:07:29.628Z,72.25
2022-09-04T04:08:29.619Z,71.23
2022-09-04T04:09:29.638Z,71.53
2022-09-04T04:10:29.594Z,72.55
2022-09-04T04:11:29.582Z,71.84
2022-09-04T04:12:29.578Z,71.33
2022-09-04T04:13:29.557Z,71.33
2022-09-04T04:14:29.556Z,70.83
2022-09-04T04:15:29.531Z,70.52
2022-09-04T04:16:29.605Z,70.92
2022-09-04T04:17:29.510Z,70.11
2022-09-04T04:18:29.498Z,69.81
2022-09-04T04:19:29.484Z,69.40
2022-09-04T04:20:29.469Z,69.60
2022-09-04T04:21:29.461Z,70.42
2022-09-04T04:22:29.452Z,70.39
2022-09-04T04:23:29.436Z,70.79
2022-09-04T04:24:29.427Z,69.78
2022-09-04T04:25:29.415Z,70.69
2022-09-04T04:26:29.401Z,69.57
2022-09-04T04:27:29.407Z,69.71
2022-09-04T04:28:29.388Z,70.48
2022-09-04T04:29:29.367Z,71.50
2022-09-04T04:30:29.377Z,71.03
2022-09-04T04:31:29.378Z,71.30
2022-09-04T04:32:29.366Z,70.42
2022-09-04T04:33:29.311Z,70.42
2022-09-04T04:34:29.306Z,71.44
2022-09-04T04:35:29.286Z,71.70
2022-09-04T04:36:29.275Z,71.40
2022-09-04T04:37:29.259Z,71.44
2022-09-04T04:38:29.291Z,71.94
2022-09-04T04:39:30.426Z,72.04
2022-09-04T04:40:29.223Z,71.84
2022-09-04T04:41:29.209Z,72.45
2022-09-04T04:42:29.204Z,71.44
2022-09-04T04:43:29.186Z,71.03
2022-09-04T04:44:29.204Z,71.64
2022-09-04T04:45:29.163Z,72.25
2022-09-04T04:46:29.239Z,72.75
2022-09-04T04:47:29.143Z,73.16
2022-09-04T04:48:29.132Z,72.85
2022-09-04T04:49:29.115Z,72.34
2022-09-04T04:50:29.103Z,72.55
2022-09-04T04:51:29.089Z,72.65
2022-09-04T04:52:29.081Z,73.16
2022-09-04T04:53:29.089Z,73.26
2022-09-04T04:54:29.068Z,73.06
2022-09-04T04:55:29.064Z,73.36
2022-09-04T04:56:29.031Z,73.50
2022-09-04T04:57:29.019Z,73.16
2022-09-04T04:58:29.010Z,74.17
2022-09-04T04:59:28.991Z,73.66
2022-09-04T05:00:28.983Z,73.06
2022-09-04T05:01:29.042Z,73.57
2022-09-04T05:02:29.011Z,73.09
2022-09-04T05:03:28.940Z,72.48
2022-09-04T05:04:28.969Z,72.45
2022-09-04T05:05:28.919Z,72.34
2022-09-04T05:06:28.935Z,71.94
2022-09-04T05:07:28.889Z,73.16
2022-09-04T05:08:28.879Z,74.10
2022-09-04T05:09:28.871Z,73.29
2022-09-04T05:10:29.041Z,74.10
2022-09-04T05:11:28.842Z,73.09
2022-09-04T05:12:28.832Z,73.26
2022-09-04T05:13:28.824Z,72.99
2022-09-04T05:14:28.808Z,72.85
2022-09-04T05:15:28.793Z,71.53
2022-09-04T05:16:28.809Z,71.53
2022-09-04T05:17:28.787Z,71.13
2022-09-04T05:18:28.786Z,71.40
2022-09-04T05:19:28.743Z,71.09
2022-09-04T05:20:28.732Z,69.57
2022-09-04T05:21:28.729Z,70.39
2022-09-04T05:22:31.424Z,69.64
2022-09-04T05:23:29.099Z,69.74
2022-09-04T05:24:28.684Z,71.16
2022-09-04T05:25:28.673Z,72.11
2022-09-04T05:26:28.710Z,71.50
2022-09-04T05:27:28.664Z,72.82
2022-09-04T05:28:28.638Z,72.31
2022-09-04T05:29:32.372Z,73.66
2022-09-04T05:30:28.630Z,73.36
2022-09-04T05:31:28.671Z,74.17
2022-09-04T05:32:28.617Z,74.38
2022-09-04T05:33:28.568Z,74.07
2022-09-04T05:34:28.564Z,72.85
2022-09-04T05:35:35.344Z,74.17
2022-09-04T05:36:28.605Z,73.16
2022-09-04T05:37:28.522Z,73.83
2022-09-04T05:38:28.509Z,73.22
2022-09-04T05:39:28.537Z,73.12
2022-09-04T05:40:28.500Z,72.11
2022-09-04T05:41:28.468Z,72.92
2022-09-04T05:42:28.485Z,72.52
2022-09-04T05:43:28.464Z,71.67
2022-09-04T05:44:28.433Z,71.77
2022-09-04T05:45:28.419Z,71.16
2022-09-04T05:46:28.432Z,72.08
2022-09-04T05:47:30.727Z,71.73
2022-09-04T05:48:28.386Z,71.03
2022-09-04T05:49:28.375Z,72.14
2022-09-04T05:50:28.366Z,71.33
2022-09-04T05:51:28.345Z,69.71
2022-09-04T05:52:28.337Z,70.72
2022-09-04T05:53:28.355Z,70.79
2022-09-04T05:54:28.313Z,70.93
2022-09-04T05:55:28.295Z,70.79
2022-09-04T05:56:28.287Z,72.21
2022-09-04T05:57:28.275Z,72.01
2022-09-04T05:58:28.328Z,71.44
2022-09-04T05:59:28.250Z,72.04
2022-09-04T06:00:28.323Z,73.25
2022-09-04T06:01:28.254Z,73.16
2022-09-04T06:02:28.303Z,72.24
2022-09-04T06:03:28.212Z,72.34
2022-09-04T06:04:28.225Z,73.36
2022-09-04T06:05:28.177Z,73.56
2022-09-04T06:06:28.175Z,72.75
2022-09-04T06:07:28.154Z,73.05
2022-09-04T06:08:28.949Z,73.43
2022-09-04T06:09:28.182Z,72.55
2022-09-04T06:10:28.150Z,72.75
2022-09-04T06:11:28.114Z,72.01
2022-09-04T06:12:28.087Z,73.02
2022-09-04T06:13:28.082Z,73.22
2022-09-04T06:14:28.066Z,73.32
2022-09-04T06:15:28.123Z,72.78
2022-09-04T06:16:28.118Z,71.37
2022-09-04T06:17:28.041Z,70.96
2022-09-04T06:18:28.023Z,71.88
2022-09-04T06:19:28.010Z,72.17
2022-09-04T06:20:28.009Z,71.97
2022-09-04T06:21:28.010Z,71.77
2022-09-04T06:22:28.030Z,71.84
2022-09-04T06:23:27.964Z,71.23
2022-09-04T06:24:27.947Z,72.24
2022-09-04T06:25:27.942Z,71.33
2022-09-04T06:26:27.922Z,71.94
2022-09-04T06:27:27.915Z,71.33
2022-09-04T06:28:27.922Z,72.04
2022-09-04T06:29:27.893Z,71.73
2022-09-04T06:30:27.900Z,72.24
2022-09-04T06:31:27.911Z,72.34
2022-09-04T06:32:27.887Z,72.34
2022-09-04T06:33:27.874Z,71.23
2022-09-04T06:34:27.893Z,72.55
2022-09-04T06:35:27.819Z,71.97
2022-09-04T06:36:27.804Z,72.58
2022-09-04T06:37:27.796Z,71.77
2022-09-04T06:38:27.779Z,71.16
2022-09-04T06:39:27.824Z,72.99
2022-09-04T06:40:27.789Z,72.68
2022-09-04T06:41:27.816Z,74.00
2022-09-04T06:42:27.739Z,73.80
2022-09-04T06:43:29.630Z,73.25
2022-09-04T06:44:27.787Z,73.15
2022-09-04T06:45:27.761Z,71.84
2022-09-04T06:46:27.784Z,71.84
2022-09-04T06:47:27.734Z,71.94
2022-09-04T06:48:27.664Z,71.60
2022-09-04T06:49:27.653Z,72.72
2022-09-04T06:50:27.638Z,73.46
2022-09-04T06:51:27.627Z,72.04
2022-09-04T06:52:27.617Z,71.33
2022-09-04T06:53:27.669Z,71.13
2022-09-04T06:54:27.595Z,71.70
2022-09-04T06:55:27.603Z,72.95
2022-09-04T06:56:27.568Z,72.51
2022-09-04T06:57:27.561Z,71.23
2022-09-04T06:58:27.553Z,70.59
2022-09-04T06:59:27.563Z,71.70
2022-09-04T07:00:27.650Z,71.09
2022-09-04T07:01:27.607Z,71.06
2022-09-04T07:02:27.661Z,71.17
2022-09-04T07:03:27.493Z,70.96
2022-09-04T07:04:27.516Z,73.08
2022-09-04T07:05:27.470Z,71.47
2022-09-04T07:06:27.477Z,69.95
2022-09-04T07:07:27.448Z,71.77
2022-09-04T07:08:27.565Z,71.26
2022-09-04T07:09:27.423Z,71.47
2022-09-04T07:10:27.435Z,71.06
2022-09-04T07:11:27.402Z,71.53
2022-09-04T07:12:27.385Z,71.87
2022-09-04T07:13:27.391Z,71.64
2022-09-04T07:14:27.391Z,70.83
2022-09-04T07:15:27.418Z,72.17
2022-09-04T07:16:27.346Z,71.17
2022-09-04T07:17:27.679Z,71.26
2022-09-04T07:18:27.317Z,71.23
2022-09-04T07:19:27.311Z,71.23
2022-09-04T07:20:27.299Z,70.93
2022-09-04T07:21:28.627Z,69.98
2022-09-04T07:22:27.272Z,69.08
2022-09-04T07:23:27.261Z,67.69
2022-09-04T07:24:27.313Z,67.86
2022-09-04T07:25:27.298Z,66.55
2022-09-04T07:26:27.236Z,65.61
2022-09-04T07:27:27.217Z,65.61
2022-09-04T07:28:27.204Z,65.08
2022-09-04T07:29:27.208Z,64.78
2022-09-04T07:30:27.190Z,64.44
2022-09-04T07:31:27.237Z,67.36
2022-09-04T07:32:27.160Z,68.21
2022-09-04T07:33:27.150Z,67.80
2022-09-04T07:34:27.143Z,67.40
2022-09-04T07:35:27.181Z,67.19
2022-09-04T07:36:29.853Z,68.41
2022-09-04T07:37:27.107Z,67.80
2022-09-04T07:38:27.093Z,69.52
2022-09-04T07:39:27.123Z,67.19
2022-09-04T07:40:27.946Z,69.11
2022-09-04T07:41:27.073Z,69.21
2022-09-04T07:42:27.050Z,69.92
2022-09-04T07:43:27.038Z,70.62
2022-09-04T07:44:27.027Z,68.01
2022-09-04T07:45:27.022Z,71.84
2022-09-04T07:46:27.139Z,70.12
2022-09-04T07:47:26.997Z,69.21
2022-09-04T07:48:26.987Z,68.91
2022-09-04T07:49:26.975Z,69.01
2022-09-04T07:50:26.966Z,68.91
2022-09-04T07:51:26.955Z,69.11
2022-09-04T07:52:26.963Z,68.07
2022-09-04T07:53:26.930Z,69.18
2022-09-04T07:54:26.969Z,65.35
2022-09-04T07:55:26.939Z,66.05
2022-09-04T07:56:26.903Z,65.62
2022-09-04T07:57:26.903Z,64.72
2022-09-04T07:58:26.877Z,64.81
2022-09-04T07:59:26.869Z,64.89
2022-09-04T08:00:26.854Z,65.29
2022-09-04T08:01:26.894Z,66.60
2022-09-04T08:02:26.862Z,65.69
2022-09-04T08:03:26.828Z,65.09
2022-09-04T08:04:26.866Z,67.20
2022-09-04T08:05:26.803Z,65.59
2022-09-04T08:06:26.788Z,65.89
2022-09-04T08:07:26.789Z,65.39
2022-09-04T08:08:26.805Z,66.27
2022-09-04T08:09:26.790Z,66.27
2022-09-04T08:10:26.759Z,64.65
2022-09-04T08:11:26.739Z,66.47
2022-09-04T08:12:26.734Z,67.30
2022-09-04T08:13:26.783Z,65.29
2022-09-04T08:14:26.712Z,64.89
2022-09-04T08:15:26.754Z,64.55
2022-09-04T08:16:26.725Z,65.36
2022-09-04T08:17:26.692Z,64.52
2022-09-04T08:18:26.673Z,64.72
2022-09-04T08:19:26.686Z,65.42
2022-09-04T08:20:26.662Z,64.72
2022-09-04T08:21:26.646Z,66.94
2022-09-04T08:22:28.433Z,65.33
2022-09-04T08:23:26.621Z,66.33
2022-09-04T08:24:26.654Z,67.64
2022-09-04T08:25:26.605Z,66.43
2022-09-04T08:26:26.603Z,67.07
2022-09-04T08:27:26.581Z,64.72
2022-09-04T08:28:26.625Z,66.80
2022-09-04T08:29:26.565Z,65.22
2022-09-04T08:30:26.590Z,64.59
2022-09-04T08:31:26.576Z,66.50
2022-09-04T08:32:37.932Z,66.74
2022-09-04T08:33:26.537Z,66.83
2022-09-04T08:34:26.650Z,66.40
2022-09-04T08:35:26.745Z,64.99
2022-09-04T08:36:26.514Z,64.69
2022-09-04T08:37:26.495Z,64.19
2022-09-04T08:38:26.564Z,63.76
2022-09-04T08:39:26.512Z,63.65
2022-09-04T08:40:26.520Z,65.47
2022-09-04T08:41:26.457Z,65.16
2022-09-04T08:42:26.446Z,65.26
2022-09-04T08:43:26.438Z,64.16
2022-09-04T08:44:26.424Z,66.17
2022-09-04T08:45:26.423Z,65.16
2022-09-04T08:46:28.919Z,65.16
2022-09-04T08:47:26.397Z,64.43
2022-09-04T08:48:26.526Z,64.16
2022-09-04T08:49:26.399Z,64.96
2022-09-04T08:50:26.368Z,65.53
2022-09-04T08:51:26.385Z,66.84
2022-09-04T08:52:26.437Z,66.03
2022-09-04T08:53:26.360Z,65.64
2022-09-04T08:54:26.334Z,64.93
2022-09-04T08:55:26.362Z,66.64
2022-09-04T08:56:26.318Z,65.64
2022-09-04T08:57:26.307Z,64.90
2022-09-04T08:58:26.453Z,63.70
2022-09-04T08:59:26.351Z,63.49
2022-09-04T09:00:26.285Z,62.76
2022-09-04T09:01:26.323Z,64.27
2022-09-04T09:02:26.318Z,64.57
2022-09-04T09:03:26.261Z,63.49
2022-09-04T09:04:26.251Z,63.90
2022-09-04T09:05:26.266Z,65.10
2022-09-04T09:06:26.232Z,64.40
2022-09-04T09:07:26.222Z,65.70
2022-09-04T09:08:31.388Z,65.10
2022-09-04T09:09:26.246Z,64.40
2022-09-04T09:10:26.199Z,65.60
2022-09-04T09:11:26.189Z,65.50
2022-09-04T09:12:26.186Z,65.67
2022-09-04T09:13:26.166Z,65.17
2022-09-04T09:14:26.176Z,64.87
2022-09-04T09:15:26.162Z,65.37
2022-09-04T09:16:26.187Z,64.87
2022-09-04T09:17:29.849Z,65.27
2022-09-04T09:18:26.249Z,65.07
2022-09-04T09:19:26.119Z,65.64
2022-09-04T09:20:26.181Z,65.24
2022-09-04T09:21:26.097Z,65.54
2022-09-04T09:22:26.130Z,65.04
2022-09-04T09:23:26.094Z,63.84
2022-09-04T09:24:26.073Z,64.31
2022-09-04T09:25:26.067Z,64.81
2022-09-04T09:26:26.115Z,63.10
2022-09-04T09:27:26.089Z,63.57
2022-09-04T09:28:26.038Z,62.67
2022-09-04T09:29:26.144Z,62.37
2022-09-04T09:30:26.051Z,61.87
2022-09-04T09:31:26.041Z,61.27
2022-09-04T09:32:26.014Z,61.67
2022-09-04T09:33:26.119Z,61.36
2022-09-04T09:34:25.991Z,61.74
2022-09-04T09:35:25.975Z,61.67
2022-09-04T09:36:25.980Z,62.34
2022-09-04T09:37:25.986Z,62.04
2022-09-04T09:38:25.951Z,62.44
2022-09-04T09:39:25.976Z,63.34
2022-09-04T09:40:25.938Z,62.07
2022-09-04T09:41:25.936Z,62.14
2022-09-04T09:42:25.952Z,62.24
2022-09-04T09:43:25.989Z,62.14
2022-09-04T09:44:25.954Z,61.61
2022-09-04T09:45:25.891Z,62.31
2022-09-04T09:46:25.929Z,62.11
2022-09-04T09:47:25.871Z,62.14
2022-09-04T09:48:25.865Z,63.54
2022-09-04T09:49:25.853Z,63.75
2022-09-04T09:50:25.946Z,62.84
2022-09-04T09:51:25.838Z,63.21
2022-09-04T09:52:25.831Z,63.34
2022-09-04T09:53:25.937Z,62.92
2022-09-04T09:54:25.844Z,62.71
2022-09-04T09:55:25.801Z,63.21
2022-09-04T09:56:25.849Z,61.81
2022-09-04T09:57:33.232Z,62.21
2022-09-04T09:58:25.777Z,62.21
2022-09-04T09:59:25.770Z,61.18
2022-09-04T10:00:25.773Z,61.01
2022-09-04T10:01:25.791Z,61.18
2022-09-04T10:02:25.830Z,60.98
2022-09-04T10:03:25.910Z,60.88
2022-09-04T10:04:25.723Z,61.48
2022-09-04T10:05:25.722Z,62.38
2022-09-04T10:06:25.711Z,63.58
2022-09-04T10:07:25.694Z,63.58
2022-09-04T10:08:35.350Z,63.78
2022-09-04T10:09:25.679Z,63.08
2022-09-04T10:10:25.711Z,63.18
2022-09-04T10:11:25.663Z,62.98
2022-09-04T10:12:25.652Z,62.35
2022-09-04T10:13:25.833Z,61.75
2022-09-04T10:14:25.733Z,62.65
2022-09-04T10:15:25.627Z,62.08
2022-09-04T10:16:25.676Z,61.75
2022-09-04T10:17:25.609Z,61.75
2022-09-04T10:18:25.614Z,61.55
2022-09-04T10:19:25.592Z,61.15
2022-09-04T10:20:25.591Z,60.05
2022-09-04T10:21:25.570Z,59.92
2022-09-04T10:22:25.571Z,61.15
2022-09-04T10:23:25.652Z,62.02
2022-09-04T10:24:25.548Z,61.82
2022-09-04T10:25:25.696Z,61.52
2022-09-04T10:26:26.964Z,61.42
2022-09-04T10:27:25.517Z,61.12
2022-09-04T10:28:25.513Z,61.22
2022-09-04T10:29:25.513Z,61.42
2022-09-04T10:30:25.554Z,61.92
2022-09-04T10:31:25.487Z,62.52
2022-09-04T10:32:25.476Z,61.42
2022-09-04T10:33:25.577Z,62.42
2022-09-04T10:34:25.460Z,62.12
2022-09-04T10:35:25.596Z,61.32
2022-09-04T10:36:25.492Z,62.02
2022-09-04T10:37:25.431Z,62.92
2022-09-04T10:38:25.443Z,62.92
2022-09-04T10:39:25.434Z,62.82
2022-09-04T10:40:25.407Z,62.92
2022-09-04T10:41:25.399Z,61.72
2022-09-04T10:42:25.448Z,62.12
2022-09-04T10:43:25.503Z,61.32
2022-09-04T10:44:25.372Z,61.92
2022-09-04T10:45:25.365Z,61.62
2022-09-04T10:46:25.384Z,60.49
2022-09-04T10:47:25.349Z,60.59
2022-09-04T10:48:28.620Z,61.22
2022-09-04T10:49:25.327Z,61.59
2022-09-04T10:50:25.325Z,61.29
2022-09-04T10:51:25.312Z,61.12
2022-09-04T10:52:25.305Z,61.40
2022-09-04T10:53:25.439Z,61.99
2022-09-04T10:54:25.289Z,61.29
2022-09-04T10:55:25.289Z,61.40
2022-09-04T10:56:25.271Z,61.07
2022-09-04T10:57:25.263Z,59.74
2022-09-04T10:58:25.255Z,59.83
2022-09-04T10:59:25.289Z,60.53
2022-09-04T11:00:25.304Z,59.94
2022-09-04T11:01:25.318Z,60.14
2022-09-04T11:02:25.273Z,59.91
2022-09-04T11:03:25.269Z,59.81
2022-09-04T11:04:25.207Z,58.11
2022-09-04T11:05:25.195Z,58.41
2022-09-04T11:06:25.257Z,58.11
2022-09-04T11:07:28.631Z,58.81
2022-09-04T11:08:25.167Z,58.81
2022-09-04T11:09:25.167Z,58.31
2022-09-04T11:10:25.310Z,57.91
2022-09-04T11:11:25.146Z,58.61
2022-09-04T11:12:25.212Z,58.31
2022-09-04T11:13:25.239Z,59.31
2022-09-04T11:14:25.161Z,58.71
2022-09-04T11:15:25.110Z,58.81
2022-09-04T11:16:25.145Z,60.11
2022-09-04T11:17:25.093Z,60.91
2022-09-04T11:18:25.141Z,59.88
2022-09-04T11:19:25.090Z,59.91
2022-09-04T11:20:25.073Z,59.81
2022-09-04T11:21:25.071Z,60.21
2022-09-04T11:22:25.060Z,59.98
2022-09-04T11:23:25.208Z,60.08
2022-09-04T11:24:25.103Z,59.81
2022-09-04T11:25:25.031Z,61.60
2022-09-04T11:26:25.025Z,59.68
2022-09-04T11:27:25.042Z,60.08
2022-09-04T11:28:25.007Z,59.68
2022-09-04T11:29:25.009Z,59.48
2022-09-04T11:30:25.034Z,58.98
2022-09-04T11:31:25.038Z,58.81
2022-09-04T11:32:24.977Z,58.81
2022-09-04T11:33:25.040Z,58.81
2022-09-04T11:34:24.965Z,59.98
2022-09-04T11:35:24.950Z,61.00
2022-09-04T11:36:24.998Z,60.48
2022-09-04T11:37:24.936Z,59.98
2022-09-04T11:38:24.928Z,59.88
2022-09-04T11:39:24.945Z,59.38
2022-09-04T11:40:24.912Z,59.18
2022-09-04T11:41:24.903Z,59.15
2022-09-04T11:42:24.943Z,58.75
2022-09-04T11:43:24.974Z,58.06
2022-09-04T11:44:24.882Z,58.25
2022-09-04T11:45:24.936Z,57.26
2022-09-04T11:46:24.870Z,58.15
2022-09-04T11:47:24.863Z,58.25
2022-09-04T11:48:24.921Z,57.53
2022-09-04T11:49:24.864Z,57.43
2022-09-04T11:50:24.831Z,57.43
2022-09-04T11:51:24.826Z,56.83
2022-09-04T11:52:24.815Z,57.40
2022-09-04T11:53:24.930Z,57.80
2022-09-04T11:54:24.803Z,57.20
2022-09-04T11:55:24.794Z,58.12
2022-09-04T11:56:24.787Z,57.53
2022-09-04T11:57:24.785Z,57.50
2022-09-04T11:58:24.821Z,57.10
2022-09-04T11:59:24.762Z,57.90
2022-09-04T12:00:24.754Z,58.29
2022-09-04T12:01:24.743Z,58.40
2022-09-04T12:02:24.823Z,58.20
2022-09-04T12:03:24.823Z,59.69
2022-09-04T12:04:24.935Z,58.10
2022-09-04T12:05:24.723Z,57.40
2022-09-04T12:06:24.709Z,57.47
2022-09-04T12:07:24.703Z,57.10
2022-09-04T12:08:24.717Z,58.27
2022-09-04T12:09:24.679Z,58.27
2022-09-04T12:10:24.703Z,59.69
2022-09-04T12:11:24.667Z,58.76
2022-09-04T12:12:24.665Z,57.00
2022-09-04T12:13:24.652Z,57.30
2022-09-04T12:14:24.680Z,57.57
2022-09-04T12:15:24.633Z,57.28
2022-09-04T12:16:24.675Z,56.87
2022-09-04T12:17:24.621Z,56.98
2022-09-04T12:18:24.616Z,57.05
2022-09-04T12:19:24.614Z,56.68
2022-09-04T12:20:24.598Z,55.55
2022-09-04T12:21:24.648Z,56.98
2022-09-04T12:22:24.583Z,57.05
2022-09-04T12:23:24.663Z,56.45
2022-09-04T12:24:24.567Z,55.35
2022-09-04T12:25:24.560Z,55.95
2022-09-04T12:26:24.588Z,55.76
2022-09-04T12:27:24.591Z,55.85
2022-09-04T12:28:24.544Z,55.85
2022-09-04T12:29:24.530Z,55.26
2022-09-04T12:30:24.611Z,55.05
2022-09-04T12:31:24.563Z,55.35
2022-09-04T12:32:24.535Z,55.65
2022-09-04T12:33:24.624Z,55.88
2022-09-04T12:34:24.530Z,55.88
2022-09-04T12:35:27.472Z,55.78
2022-09-04T12:36:24.477Z,56.57
2022-09-04T12:37:24.497Z,56.77
2022-09-04T12:38:24.504Z,55.88
2022-09-04T12:39:24.516Z,55.98
2022-09-04T12:40:24.449Z,56.65
2022-09-04T12:41:24.484Z,56.45
2022-09-04T12:42:24.453Z,56.45
2022-09-04T12:43:24.576Z,56.25
2022-09-04T12:44:24.420Z,56.75
2022-09-04T12:45:24.494Z,56.05
2022-09-04T12:46:24.405Z,56.35
2022-09-04T12:47:24.390Z,55.65
2022-09-04T12:48:24.405Z,56.62
2022-09-04T12:49:24.381Z,55.73
2022-09-04T12:50:24.417Z,56.42
2022-09-04T12:51:24.367Z,57.02
2022-09-04T12:52:24.357Z,56.72